createdAt,value
2023-05-20T00:01:07.248Z,7.97
2023-05-20T00:03:35.266Z,7.90
2023-05-20T00:06:03.651Z,8.40
2023-05-20T00:08:31.442Z,7.82
2023-05-20T00:10:59.547Z,7.53
2023-05-20T00:13:28.772Z,7.20
2023-05-20T00:15:56.525Z,7.80
2023-05-20T00:18:24.737Z,7.68
2023-05-20T00:20:54.064Z,7.88
2023-05-20T00:23:22.270Z,8.68
2023-05-20T00:25:50.629Z,8.20
2023-05-20T00:28:19.810Z,8.27
2023-05-20T00:30:49.058Z,8.02
2023-05-20T00:33:16.953Z,7.93
2023-05-20T00:35:44.751Z,8.05
2023-05-20T00:38:12.599Z,8.32
2023-05-20T00:40:40.463Z,9.70
2023-05-20T00:43:08.299Z,8.63
2023-05-20T00:45:36.311Z,9.25
2023-05-20T00:48:06.801Z,14.95
2023-05-20T00:50:35.711Z,9.30
2023-05-20T00:53:04.196Z,9.35
2023-05-20T00:55:32.629Z,8.98
2023-05-20T00:58:00.774Z,9.32
2023-05-20T01:00:28.658Z,8.65
2023-05-20T01:02:57.375Z,8.85
2023-05-20T01:05:26.702Z,8.65
2023-05-20T01:07:54.771Z,9.88
2023-05-20T01:10:25.249Z,9.20
2023-05-20T01:12:58.087Z,9.63
2023-05-20T01:15:28.686Z,8.52
2023-05-20T01:18:02.718Z,8.48
2023-05-20T01:20:33.297Z,9.52
2023-05-20T01:23:02.735Z,9.80
2023-05-20T01:25:30.899Z,9.73
2023-05-20T01:27:59.125Z,10.07
2023-05-20T01:30:32.018Z,9.32
2023-05-20T01:33:07.109Z,11.02
2023-05-20T01:35:36.592Z,10.35
2023-05-20T01:38:07.235Z,10.10
2023-05-20T01:40:36.160Z,11.65
2023-05-20T01:43:05.312Z,11.05
2023-05-20T01:45:33.360Z,12.48
2023-05-20T01:48:01.746Z,12.18
2023-05-20T01:50:29.605Z,11.70
2023-05-20T01:52:57.439Z,12.13
2023-05-20T01:55:26.736Z,12.23
2023-05-20T01:57:54.571Z,12.20
2023-05-20T02:00:22.831Z,12.90
2023-05-20T02:02:51.130Z,12.73
2023-05-20T02:05:19.389Z,12.50
2023-05-20T02:07:47.195Z,11.75
2023-05-20T02:10:14.965Z,10.95
2023-05-20T02:12:44.481Z,12.25
2023-05-20T02:15:12.709Z,12.07
2023-05-20T02:17:43.798Z,11.20
2023-05-20T02:20:13.901Z,11.63
2023-05-20T02:22:41.906Z,11.88
2023-05-20T02:25:10.877Z,12.57
2023-05-20T02:27:39.933Z,12.65
2023-05-20T02:30:10.529Z,15.05
2023-05-20T02:32:38.487Z,13.05
2023-05-20T02:35:07.130Z,13.80
2023-05-20T02:37:35.480Z,13.32
2023-05-20T02:40:03.403Z,14.10
2023-05-20T02:42:31.321Z,12.75
2023-05-20T02:44:59.126Z,12.48
2023-05-20T02:47:28.860Z,13.00
2023-05-20T02:49:56.896Z,13.10
2023-05-20T02:52:24.718Z,13.10
2023-05-20T02:54:52.888Z,14.00
2023-05-20T02:57:21.041Z,15.27
2023-05-20T02:59:48.989Z,15.13
2023-05-20T03:02:16.825Z,14.50
2023-05-20T03:04:47.424Z,13.68
2023-05-20T03:07:19.453Z,15.02
2023-05-20T03:09:47.363Z,15.10
2023-05-20T03:12:15.230Z,14.50
2023-05-20T03:14:43.008Z,15.20
2023-05-20T03:17:11.694Z,15.95
2023-05-20T03:19:39.499Z,15.63
2023-05-20T03:22:08.824Z,15.18
2023-05-20T03:24:36.694Z,16.85
2023-05-20T03:27:04.754Z,17.40
2023-05-20T03:29:33.868Z,15.43
2023-05-20T03:32:02.321Z,16.10
2023-05-20T03:34:30.295Z,16.05
2023-05-20T03:37:00.234Z,15.32
2023-05-20T03:39:29.596Z,17.23
2023-05-20T03:41:57.321Z,17.48
2023-05-20T03:44:25.132Z,16.52
2023-05-20T03:46:53.048Z,16.67
2023-05-20T03:49:20.905Z,15.57
2023-05-20T03:51:48.685Z,17.38
2023-05-20T03:54:17.480Z,16.98
2023-05-20T03:56:48.095Z,16.60
2023-05-20T03:59:15.939Z,16.40
2023-05-20T04:01:43.839Z,16.88
2023-05-20T04:04:11.701Z,17.58
2023-05-20T04:06:40.469Z,15.98
2023-05-20T04:09:08.277Z,16.63
2023-05-20T04:11:36.046Z,16.80
2023-05-20T04:14:05.441Z,16.08
2023-05-20T04:16:33.724Z,16.60
2023-05-20T04:19:02.812Z,15.20
2023-05-20T04:21:31.512Z,15.93
2023-05-20T04:23:59.434Z,15.98
2023-05-20T04:26:27.378Z,16.30
2023-05-20T04:28:55.495Z,15.23
2023-05-20T04:31:26.972Z,16.38
2023-05-20T04:33:55.012Z,15.63
2023-05-20T04:36:22.819Z,14.63
2023-05-20T04:38:50.606Z,14.52
2023-05-20T04:41:18.572Z,16.10
2023-05-20T04:43:46.476Z,15.27
2023-05-20T04:46:14.539Z,13.55
2023-05-20T04:48:44.433Z,13.77
2023-05-20T04:51:12.253Z,13.18
2023-05-20T04:53:40.473Z,12.65
2023-05-20T04:56:08.458Z,13.05
2023-05-20T04:58:36.297Z,12.77
2023-05-20T05:01:04.184Z,12.88
2023-05-20T05:03:32.180Z,12.25
2023-05-20T05:06:01.323Z,12.93
2023-05-20T05:08:29.433Z,11.45
2023-05-20T05:10:57.658Z,12.13
2023-05-20T05:13:25.720Z,11.70
2023-05-20T05:16:00.187Z,11.82
2023-05-20T05:18:28.180Z,11.90
2023-05-20T05:21:05.139Z,11.15
2023-05-20T05:23:34.044Z,12.15
2023-05-20T05:26:02.017Z,12.40
2023-05-20T05:28:30.046Z,10.88
2023-05-20T05:30:58.307Z,11.93
2023-05-20T05:33:26.285Z,11.32
2023-05-20T05:35:54.253Z,11.23
2023-05-20T05:38:23.374Z,11.38
2023-05-20T05:40:51.123Z,11.90
2023-05-20T05:43:18.925Z,12.55
2023-05-20T05:45:46.789Z,11.75
2023-05-20T05:48:14.620Z,12.18
2023-05-20T05:50:45.528Z,11.70
2023-05-20T05:53:13.470Z,11.88
2023-05-20T05:55:42.603Z,12.93
2023-05-20T05:58:10.434Z,11.77
2023-05-20T06:00:38.196Z,12.13
2023-05-20T06:03:06.103Z,12.48
2023-05-20T06:05:34.362Z,12.65
2023-05-20T06:08:02.460Z,11.85
2023-05-20T06:10:30.252Z,12.70
2023-05-20T06:12:59.548Z,12.20
2023-05-20T06:15:27.338Z,11.98
2023-05-20T06:17:55.118Z,12.02
2023-05-20T06:20:23.006Z,12.35
2023-05-20T06:22:50.893Z,12.88
2023-05-20T06:25:18.656Z,12.38
2023-05-20T06:27:46.460Z,13.50
2023-05-20T06:30:16.184Z,12.38
2023-05-20T06:32:43.980Z,13.25
2023-05-20T06:35:12.248Z,12.15
2023-05-20T06:37:40.103Z,13.25
2023-05-20T06:40:09.151Z,11.85
2023-05-20T06:42:36.988Z,11.60
2023-05-20T06:45:05.270Z,11.57
2023-05-20T06:47:34.874Z,12.20
2023-05-20T06:50:02.795Z,12.30
2023-05-20T06:52:30.613Z,12.85
2023-05-20T06:54:58.391Z,13.20
2023-05-20T06:57:26.250Z,12.70
2023-05-20T06:59:54.323Z,12.57
2023-05-20T07:02:22.593Z,11.68
2023-05-20T07:04:51.819Z,13.25
2023-05-20T07:07:19.577Z,12.63
2023-05-20T07:09:47.369Z,12.90
2023-05-20T07:12:15.639Z,12.98
2023-05-20T07:14:43.792Z,11.98
2023-05-20T07:17:12.887Z,12.60
2023-05-20T07:19:40.777Z,12.80
2023-05-20T07:22:10.187Z,12.23
2023-05-20T07:24:38.035Z,12.35
2023-05-20T07:27:06.346Z,12.98
2023-05-20T07:29:34.143Z,13.15
2023-05-20T07:32:02.084Z,12.70
2023-05-20T07:34:30.020Z,11.50
2023-05-20T07:36:58.325Z,12.23
2023-05-20T07:39:27.667Z,12.25
2023-05-20T07:41:55.896Z,12.48
2023-05-20T07:44:24.109Z,12.88
2023-05-20T07:46:51.904Z,12.00
2023-05-20T07:49:19.777Z,12.70
2023-05-20T07:51:47.668Z,12.40
2023-05-20T07:54:15.551Z,12.60
2023-05-20T07:56:44.836Z,11.82
2023-05-20T07:59:12.719Z,11.57
2023-05-20T08:01:43.019Z,11.45
2023-05-20T08:04:11.155Z,11.98
2023-05-20T08:06:39.854Z,11.45
2023-05-20T08:09:08.009Z,10.30
2023-05-20T08:11:35.889Z,11.68
2023-05-20T08:14:05.040Z,11.02
2023-05-20T08:16:32.979Z,10.82
2023-05-20T08:19:00.932Z,11.15
2023-05-20T08:21:28.839Z,10.50
2023-05-20T08:23:57.086Z,10.10
2023-05-20T08:26:25.010Z,11.00
2023-05-20T08:28:52.990Z,10.32
2023-05-20T08:31:22.119Z,10.07
2023-05-20T08:33:50.242Z,11.20
2023-05-20T08:36:19.443Z,11.02
2023-05-20T08:38:47.292Z,10.50
2023-05-20T08:41:15.547Z,11.60
2023-05-20T08:43:43.809Z,10.75
2023-05-20T08:46:12.129Z,10.82
2023-05-20T08:48:41.768Z,10.98
2023-05-20T08:51:11.277Z,10.82
2023-05-20T08:53:39.169Z,10.73
2023-05-20T08:56:07.828Z,10.13
2023-05-20T08:58:35.647Z,10.23
2023-05-20T09:01:03.468Z,10.90
2023-05-20T09:03:32.199Z,10.27
2023-05-20T09:06:06.762Z,10.98
2023-05-20T09:08:35.413Z,10.77
2023-05-20T09:11:03.450Z,10.07
2023-05-20T09:13:32.896Z,10.52
2023-05-20T09:16:02.106Z,9.88
2023-05-20T09:18:30.473Z,10.30
2023-05-20T09:20:58.688Z,10.35
2023-05-20T09:23:30.741Z,9.35
2023-05-20T09:28:26.074Z,9.00
2023-05-20T09:30:58.944Z,9.43
2023-05-20T09:33:30.355Z,10.13
2023-05-20T09:36:05.357Z,9.88
2023-05-20T09:38:38.226Z,9.50
2023-05-20T09:41:09.769Z,9.27
2023-05-20T09:43:37.975Z,10.40
2023-05-20T09:46:06.577Z,9.90
2023-05-20T09:48:36.460Z,9.07
2023-05-20T09:51:05.974Z,8.82
2023-05-20T09:53:35.636Z,9.27
2023-05-20T09:56:03.529Z,9.55
2023-05-20T09:58:31.612Z,8.65
2023-05-20T10:00:59.494Z,9.02
2023-05-20T10:03:28.346Z,8.75
2023-05-20T10:06:17.395Z,10.13
2023-05-20T10:09:03.881Z,9.07
2023-05-20T10:11:43.287Z,9.05
2023-05-20T10:14:29.907Z,9.10
2023-05-20T10:17:09.943Z,15.65
2023-05-20T10:19:37.952Z,24.77
2023-05-20T10:22:07.148Z,10.05
2023-05-20T10:24:38.673Z,28.35
2023-05-20T10:27:10.289Z,10.13
2023-05-20T10:29:45.575Z,11.43
2023-05-20T10:32:13.561Z,10.30
2023-05-20T10:34:49.874Z,10.02
2023-05-20T10:37:29.176Z,12.23
2023-05-20T10:40:12.716Z,10.70
2023-05-20T10:42:41.894Z,11.52
2023-05-20T10:45:11.232Z,12.35
2023-05-20T10:47:43.905Z,10.65
2023-05-20T10:50:27.627Z,9.10
2023-05-20T10:52:55.870Z,9.73
2023-05-20T10:55:24.977Z,9.45
2023-05-20T10:57:54.906Z,9.25
2023-05-20T11:00:22.776Z,8.90
2023-05-20T11:02:51.786Z,9.55
2023-05-20T11:05:20.622Z,8.38
2023-05-20T11:07:48.431Z,18.15
2023-05-20T11:10:16.346Z,8.93
2023-05-20T11:12:45.687Z,7.75
2023-05-20T11:15:14.089Z,8.20
2023-05-20T11:17:53.580Z,8.30
2023-05-20T11:20:21.739Z,8.30
2023-05-20T11:22:50.994Z,8.98
2023-05-20T11:25:19.486Z,9.38
2023-05-20T11:27:49.069Z,8.27
2023-05-20T11:30:18.498Z,8.60
2023-05-20T11:32:57.468Z,8.73
2023-05-20T11:35:26.250Z,10.07
2023-05-20T11:37:58.870Z,8.38
2023-05-20T11:40:32.874Z,8.55
2023-05-20T11:43:08.536Z,9.25
2023-05-20T11:45:43.213Z,8.45
2023-05-20T11:48:12.098Z,8.75
2023-05-20T11:50:41.245Z,14.77
2023-05-20T11:53:10.129Z,9.15
2023-05-20T11:55:46.930Z,8.93
2023-05-20T11:58:19.842Z,8.85
2023-05-20T12:00:54.622Z,8.73
2023-05-20T12:03:27.492Z,11.50
2023-05-20T12:05:55.524Z,8.82
2023-05-20T12:08:23.669Z,8.80
2023-05-20T12:10:51.896Z,8.77
2023-05-20T12:13:21.604Z,9.20
2023-05-20T12:15:49.440Z,7.93
2023-05-20T12:18:17.301Z,7.85
2023-05-20T12:20:45.322Z,8.70
2023-05-20T12:23:13.268Z,9.20
2023-05-20T12:25:41.111Z,8.75
2023-05-20T12:28:09.007Z,8.68
2023-05-20T12:30:38.276Z,8.65
2023-05-20T12:33:06.625Z,8.00
2023-05-20T12:35:39.096Z,8.98
2023-05-20T12:38:07.008Z,8.68
2023-05-20T12:40:35.704Z,7.78
2023-05-20T12:43:04.805Z,8.13
2023-05-20T12:45:32.611Z,8.07
2023-05-20T12:48:02.219Z,7.53
2023-05-20T12:50:30.152Z,11.05
2023-05-20T12:52:57.946Z,9.10
2023-05-20T12:55:25.876Z,8.20
2023-05-20T12:57:53.752Z,7.30
2023-05-20T13:00:21.509Z,7.82
2023-05-20T13:02:49.943Z,9.15
2023-05-20T13:05:19.794Z,8.98
2023-05-20T13:07:47.514Z,8.35
2023-05-20T13:10:15.288Z,9.05
2023-05-20T13:12:46.043Z,7.75
2023-05-20T13:15:14.680Z,7.90
2023-05-20T13:17:43.464Z,7.07
2023-05-20T13:20:12.123Z,6.30
2023-05-20T13:22:41.415Z,7.15
2023-05-20T13:25:10.192Z,7.63
2023-05-20T13:27:37.923Z,6.60
2023-05-20T13:30:06.923Z,7.05
2023-05-20T13:32:34.810Z,6.97
2023-05-20T13:35:02.664Z,7.85
2023-05-20T13:37:30.822Z,7.35
2023-05-20T13:39:59.960Z,7.25
2023-05-20T13:42:27.987Z,6.65
2023-05-20T13:44:55.754Z,6.55
2023-05-20T13:47:23.540Z,6.45
2023-05-20T13:49:51.664Z,6.20
2023-05-20T13:52:19.445Z,6.47
2023-05-20T13:54:48.712Z,6.70
2023-05-20T13:57:18.164Z,6.80
2023-05-20T13:59:45.990Z,6.40
2023-05-20T14:02:13.903Z,5.97
2023-05-20T14:04:44.947Z,5.70
2023-05-20T14:07:12.790Z,6.68
2023-05-20T14:09:40.914Z,6.85
2023-05-20T14:12:09.205Z,7.00
2023-05-20T14:14:38.396Z,6.63
2023-05-20T14:17:06.168Z,5.55
2023-05-20T14:19:34.143Z,7.13
2023-05-20T14:22:02.014Z,6.88
2023-05-20T14:24:29.923Z,6.47
2023-05-20T14:26:57.740Z,6.70
2023-05-20T14:29:25.920Z,7.20
2023-05-20T14:31:55.118Z,6.70
2023-05-20T14:34:23.022Z,7.03
2023-05-20T14:36:51.146Z,6.93
2023-05-20T14:39:18.955Z,6.38
2023-05-20T14:41:46.784Z,6.93
2023-05-20T14:44:14.763Z,7.20
2023-05-20T14:46:42.700Z,6.65
2023-05-20T14:49:11.973Z,6.85
2023-05-20T14:51:39.978Z,6.32
2023-05-20T14:54:08.904Z,8.85
2023-05-20T14:56:37.437Z,7.15
2023-05-20T14:59:05.168Z,8.70
2023-05-20T15:01:32.993Z,6.97
2023-05-20T15:04:01.100Z,9.82
2023-05-20T15:06:31.583Z,6.57
2023-05-20T15:08:59.337Z,7.10
2023-05-20T15:11:27.153Z,6.40
2023-05-20T15:13:54.909Z,7.70
2023-05-20T15:16:24.489Z,6.40
2023-05-20T15:18:52.770Z,6.57
2023-05-20T15:21:21.373Z,6.75
2023-05-20T15:23:50.593Z,7.63
2023-05-20T15:26:18.767Z,7.82
2023-05-20T15:28:46.574Z,7.10
2023-05-20T15:31:14.309Z,6.57
2023-05-20T15:33:42.471Z,6.57
2023-05-20T15:36:10.599Z,7.32
2023-05-20T15:38:38.407Z,7.03
2023-05-20T15:41:07.971Z,6.97
2023-05-20T15:43:36.101Z,7.72
2023-05-20T15:46:03.985Z,7.93
2023-05-20T15:48:33.750Z,7.35
2023-05-20T15:51:01.802Z,7.95
2023-05-20T15:53:29.566Z,7.75
2023-05-20T15:55:57.365Z,7.90
2023-05-20T15:58:26.581Z,8.40
2023-05-20T16:00:54.362Z,7.53
2023-05-20T16:03:22.491Z,7.65
2023-05-20T16:05:50.727Z,7.35
2023-05-20T16:08:21.107Z,7.05
2023-05-20T16:10:48.902Z,7.28
2023-05-20T16:13:16.789Z,7.15
2023-05-20T16:15:46.126Z,6.63
2023-05-20T16:18:13.994Z,5.97
2023-05-20T16:20:42.287Z,5.45
2023-05-20T16:23:10.223Z,7.22
2023-05-20T16:25:38.307Z,6.82
2023-05-20T16:28:06.152Z,7.93
2023-05-20T16:30:36.504Z,7.90
2023-05-20T16:33:06.118Z,7.03
2023-05-20T16:35:34.301Z,6.70
2023-05-20T16:38:02.054Z,6.47
2023-05-20T16:40:30.012Z,6.95
2023-05-20T16:42:57.790Z,6.90
2023-05-20T16:45:25.623Z,7.68
2023-05-20T16:47:53.759Z,6.75
2023-05-20T16:50:23.081Z,6.63
2023-05-20T16:52:51.033Z,6.32
2023-05-20T16:55:18.785Z,5.82
2023-05-20T16:57:47.816Z,5.53
2023-05-20T17:00:16.428Z,5.75
2023-05-20T17:02:44.240Z,5.72
2023-05-20T17:05:13.609Z,5.75
2023-05-20T17:07:44.629Z,6.78
2023-05-20T17:10:12.412Z,5.85
2023-05-20T17:12:40.213Z,7.60
2023-05-20T17:15:09.758Z,5.93
2023-05-20T17:17:37.571Z,5.75
2023-05-20T17:20:06.746Z,5.50
2023-05-20T17:22:34.916Z,5.32
2023-05-20T17:25:04.661Z,5.65
2023-05-20T17:27:33.146Z,5.82
2023-05-20T17:30:00.997Z,6.03
2023-05-20T17:32:28.970Z,5.97
2023-05-20T17:34:56.743Z,5.70
2023-05-20T17:37:24.935Z,6.53
2023-05-20T17:39:52.706Z,6.10
2023-05-20T17:42:22.196Z,5.85
2023-05-20T17:44:50.357Z,6.10
2023-05-20T17:47:18.146Z,5.72
2023-05-20T17:49:46.665Z,5.88
2023-05-20T17:52:14.382Z,6.38
2023-05-20T17:54:42.320Z,6.18
2023-05-20T17:57:10.080Z,6.05
2023-05-20T17:59:41.918Z,6.30
2023-05-20T18:04:37.986Z,5.88
2023-05-20T18:07:06.870Z,6.15
2023-05-20T18:09:35.051Z,6.43
2023-05-20T18:12:02.881Z,6.70
2023-05-20T18:14:30.745Z,6.32
2023-05-20T18:16:59.933Z,6.75
2023-05-20T18:19:28.019Z,6.93
2023-05-20T18:21:56.068Z,6.57
2023-05-20T18:24:23.826Z,6.93
2023-05-20T18:26:51.761Z,6.75
2023-05-20T18:29:19.916Z,6.30
2023-05-20T18:31:48.117Z,6.55
2023-05-20T18:34:17.274Z,7.30
2023-05-20T18:36:45.282Z,6.50
2023-05-20T18:39:14.156Z,6.53
2023-05-20T18:41:47.258Z,6.28
2023-05-20T18:44:15.661Z,7.18
2023-05-20T18:46:43.753Z,6.80
2023-05-20T18:49:11.749Z,7.30
2023-05-20T18:51:41.455Z,7.05
2023-05-20T18:54:09.496Z,6.75
2023-05-20T18:56:37.823Z,7.05
2023-05-20T18:59:05.634Z,6.18
2023-05-20T19:01:34.190Z,6.57
2023-05-20T19:04:02.009Z,7.15
2023-05-20T19:06:29.831Z,6.88
2023-05-20T19:08:58.954Z,6.57
2023-05-20T19:11:26.707Z,6.65
2023-05-20T19:13:54.880Z,6.70
2023-05-20T19:16:22.970Z,7.35
2023-05-20T19:18:50.893Z,9.73
2023-05-20T19:21:18.804Z,7.72
2023-05-20T19:23:46.900Z,7.22
2023-05-20T19:26:16.070Z,6.95
2023-05-20T19:28:43.812Z,7.13
2023-05-20T19:31:11.782Z,7.53
2023-05-20T19:33:40.238Z,7.78
2023-05-20T19:36:08.067Z,7.45
2023-05-20T19:38:35.829Z,7.32
2023-05-20T19:41:04.003Z,7.22
2023-05-20T19:43:33.287Z,8.13
2023-05-20T19:46:01.132Z,7.70
2023-05-20T19:48:28.932Z,7.32
2023-05-20T19:50:56.924Z,9.27
2023-05-20T19:53:24.712Z,8.15
2023-05-20T19:55:52.545Z,8.00
2023-05-20T19:58:20.307Z,7.63
2023-05-20T20:00:49.735Z,8.65
2023-05-20T20:03:17.606Z,8.00
2023-05-20T20:05:45.409Z,6.97
2023-05-20T20:08:13.295Z,7.40
2023-05-20T20:10:41.417Z,7.22
2023-05-20T20:13:09.191Z,7.28
2023-05-20T20:15:37.126Z,7.45
2023-05-20T20:18:06.528Z,6.85
2023-05-20T20:20:39.815Z,7.90
2023-05-20T20:23:08.341Z,7.63
2023-05-20T20:25:38.803Z,7.53
2023-05-20T20:28:06.895Z,7.85
2023-05-20T20:30:35.227Z,7.47
2023-05-20T20:33:06.277Z,7.90
2023-05-20T20:35:36.386Z,8.80
2023-05-20T20:38:08.830Z,7.40
2023-05-20T20:40:39.684Z,8.60
2023-05-20T20:43:08.129Z,8.38
2023-05-20T20:45:36.848Z,9.25
2023-05-20T20:48:07.763Z,9.07
2023-05-20T20:50:37.582Z,9.30
2023-05-20T20:53:05.381Z,9.00
2023-05-20T20:55:34.408Z,9.45
2023-05-20T20:58:05.117Z,10.52
2023-05-20T21:00:33.748Z,10.55
2023-05-20T21:03:01.678Z,9.85
2023-05-20T21:05:29.552Z,9.60
2023-05-20T21:07:59.960Z,10.30
2023-05-20T21:10:29.576Z,10.57
2023-05-20T21:12:57.976Z,10.02
2023-05-20T21:15:26.364Z,11.50
2023-05-20T21:17:54.792Z,11.30
2023-05-20T21:20:22.610Z,10.65
2023-05-20T21:22:50.779Z,15.18
2023-05-20T21:25:20.065Z,11.25
2023-05-20T21:27:47.928Z,11.63
2023-05-20T21:30:17.310Z,10.60
2023-05-20T21:32:45.090Z,9.52
2023-05-20T21:35:13.354Z,9.20
2023-05-20T21:37:41.170Z,10.75
2023-05-20T21:40:09.914Z,10.23
2023-05-20T21:42:39.110Z,10.57
2023-05-20T21:45:08.314Z,10.68
2023-05-20T21:47:36.182Z,11.20
2023-05-20T21:50:04.340Z,11.00
2023-05-20T21:52:32.218Z,9.93
2023-05-20T21:55:00.436Z,10.60
2023-05-20T21:57:28.296Z,11.27
2023-05-20T21:59:57.493Z,11.40
2023-05-20T22:02:25.427Z,10.95
2023-05-20T22:04:53.694Z,11.32
2023-05-20T22:07:22.102Z,11.02
2023-05-20T22:09:50.387Z,11.55
2023-05-20T22:12:20.457Z,17.30
2023-05-20T22:14:48.229Z,13.80
2023-05-20T22:17:18.638Z,12.90
2023-05-20T22:19:47.983Z,11.82
2023-05-20T22:22:15.831Z,12.63
2023-05-20T22:24:44.051Z,14.18
2023-05-20T22:27:11.888Z,13.10
2023-05-20T22:29:39.684Z,15.35
2023-05-20T22:32:07.987Z,15.18
2023-05-20T22:34:39.191Z,14.65
2023-05-20T22:37:07.561Z,16.63
2023-05-20T22:39:35.308Z,15.07
2023-05-20T22:42:03.030Z,15.38
2023-05-20T22:44:30.804Z,16.35
2023-05-20T22:46:58.551Z,15.55
2023-05-20T22:49:28.069Z,16.90
2023-05-20T22:51:59.240Z,15.80
2023-05-20T22:54:27.186Z,18.07
2023-05-20T22:56:58.005Z,18.13
2023-05-20T22:59:26.774Z,16.48
2023-05-20T23:01:54.665Z,16.35
2023-05-20T23:04:22.524Z,16.45
2023-05-20T23:06:53.523Z,16.30
2023-05-20T23:09:23.096Z,16.95
2023-05-20T23:11:50.845Z,17.02
2023-05-20T23:14:19.932Z,19.83
2023-05-20T23:16:47.833Z,20.98
2023-05-20T23:19:16.148Z,19.42
2023-05-20T23:21:44.376Z,21.48
2023-05-20T23:24:12.837Z,21.38
2023-05-20T23:26:41.951Z,22.50
2023-05-20T23:29:10.203Z,20.05
2023-05-20T23:31:38.125Z,22.85
2023-05-20T23:34:06.040Z,24.60
2023-05-20T23:36:34.456Z,26.17
2023-05-20T23:39:02.682Z,21.65
2023-05-20T23:41:30.632Z,20.13
2023-05-20T23:43:59.766Z,20.58
2023-05-20T23:46:27.692Z,21.85
2023-05-20T23:48:55.533Z,21.25
2023-05-20T23:51:23.333Z,22.65
2023-05-20T23:53:51.303Z,21.42
2023-05-20T23:56:19.002Z,23.67
2023-05-20T23:58:47.268Z,23.17
